sensor_id;sensor_type;location;lat;lon;timestamp;P1;durP1;ratioP1;P2;durP2;ratioP2
5133;SDS011;2585;48.696;10.066;2023-12-14T00:01:27;1.50;;;1.40;;
5133;SDS011;2585;48.696;10.066;2023-12-14T00:03:54;1.47;;;1.37;;
5133;SDS011;2585;48.696;10.066;2023-12-14T00:06:20;1.70;;;1.60;;
5133;SDS011;2585;48.696;10.066;2023-12-14T00:08:47;1.40;;;1.30;;
5133;SDS011;2585;48.696;10.066;2023-12-14T00:11:14;2.17;;;1.93;;
5133;SDS011;2585;48.696;10.066;2023-12-14T00:13:41;1.80;;;1.70;;
5133;SDS011;2585;48.696;10.066;2023-12-14T00:16:08;1.87;;;1.70;;
5133;SDS011;2585;48.696;10.066;2023-12-14T00:18:35;1.90;;;1.80;;
5133;SDS011;2585;48.696;10.066;2023-12-14T00:21:03;1.60;;;1.50;;
5133;SDS011;2585;48.696;10.066;2023-12-14T00:23:31;2.00;;;1.80;;
5133;SDS011;2585;48.696;10.066;2023-12-14T00:25:59;1.70;;;1.60;;
5133;SDS011;2585;48.696;10.066;2023-12-14T00:28:26;2.03;;;1.67;;
5133;SDS011;2585;48.696;10.066;2023-12-14T00:30:58;1.53;;;1.43;;
5133;SDS011;2585;48.696;10.066;2023-12-14T00:33:25;1.60;;;1.50;;
5133;SDS011;2585;48.696;10.066;2023-12-14T00:35:52;2.00;;;1.80;;
5133;SDS011;2585;48.696;10.066;2023-12-14T00:38:19;1.73;;;1.60;;
5133;SDS011;2585;48.696;10.066;2023-12-14T00:40:46;1.90;;;1.80;;
5133;SDS011;2585;48.696;10.066;2023-12-14T00:43:13;1.97;;;1.77;;
5133;SDS011;2585;48.696;10.066;2023-12-14T00:45:40;1.93;;;1.70;;
5133;SDS011;2585;48.696;10.066;2023-12-14T00:48:09;1.70;;;1.60;;
5133;SDS011;2585;48.696;10.066;2023-12-14T00:50:36;3.57;;;2.23;;
5133;SDS011;2585;48.696;10.066;2023-12-14T00:53:03;4.23;;;2.30;;
5133;SDS011;2585;48.696;10.066;2023-12-14T00:55:30;2.40;;;2.20;;
5133;SDS011;2585;48.696;10.066;2023-12-14T00:57:56;2.50;;;2.30;;
5133;SDS011;2585;48.696;10.066;2023-12-14T01:00:24;2.20;;;2.00;;
5133;SDS011;2585;48.696;10.066;2023-12-14T01:02:51;2.30;;;2.10;;
5133;SDS011;2585;48.696;10.066;2023-12-14T01:05:17;2.10;;;1.97;;
5133;SDS011;2585;48.696;10.066;2023-12-14T01:07:44;1.90;;;1.70;;
5133;SDS011;2585;48.696;10.066;2023-12-14T01:10:11;2.30;;;1.90;;
5133;SDS011;2585;48.696;10.066;2023-12-14T01:12:38;4.07;;;1.70;;
5133;SDS011;2585;48.696;10.066;2023-12-14T01:15:05;1.80;;;1.70;;
5133;SDS011;2585;48.696;10.066;2023-12-14T01:17:32;1.50;;;1.40;;
5133;SDS011;2585;48.696;10.066;2023-12-14T01:20:06;1.90;;;1.80;;
5133;SDS011;2585;48.696;10.066;2023-12-14T01:22:33;1.60;;;1.50;;
5133;SDS011;2585;48.696;10.066;2023-12-14T01:25:01;1.93;;;1.83;;
5133;SDS011;2585;48.696;10.066;2023-12-14T01:27:27;1.70;;;1.60;;
5133;SDS011;2585;48.696;10.066;2023-12-14T01:29:54;2.10;;;1.90;;
5133;SDS011;2585;48.696;10.066;2023-12-14T01:32:21;1.70;;;1.60;;
5133;SDS011;2585;48.696;10.066;2023-12-14T01:34:48;1.90;;;1.63;;
5133;SDS011;2585;48.696;10.066;2023-12-14T01:37:15;1.70;;;1.60;;
5133;SDS011;2585;48.696;10.066;2023-12-14T01:39:41;2.10;;;1.90;;
5133;SDS011;2585;48.696;10.066;2023-12-14T01:42:08;2.23;;;1.87;;
5133;SDS011;2585;48.696;10.066;2023-12-14T01:44:35;2.47;;;1.73;;
5133;SDS011;2585;48.696;10.066;2023-12-14T01:47:02;2.27;;;1.70;;
5133;SDS011;2585;48.696;10.066;2023-12-14T01:49:29;2.83;;;1.90;;
5133;SDS011;2585;48.696;10.066;2023-12-14T01:51:56;1.70;;;1.60;;
5133;SDS011;2585;48.696;10.066;2023-12-14T01:54:23;2.63;;;2.00;;
5133;SDS011;2585;48.696;10.066;2023-12-14T01:56:49;3.00;;;1.60;;
5133;SDS011;2585;48.696;10.066;2023-12-14T01:59:16;1.93;;;1.67;;
5133;SDS011;2585;48.696;10.066;2023-12-14T02:01:44;1.53;;;1.43;;
5133;SDS011;2585;48.696;10.066;2023-12-14T02:04:12;2.10;;;1.90;;
5133;SDS011;2585;48.696;10.066;2023-12-14T02:06:41;1.90;;;1.70;;
5133;SDS011;2585;48.696;10.066;2023-12-14T02:09:08;1.77;;;1.67;;
5133;SDS011;2585;48.696;10.066;2023-12-14T02:11:35;2.07;;;1.77;;
5133;SDS011;2585;48.696;10.066;2023-12-14T02:14:03;3.90;;;1.70;;
5133;SDS011;2585;48.696;10.066;2023-12-14T02:16:34;2.13;;;1.53;;
5133;SDS011;2585;48.696;10.066;2023-12-14T02:19:04;2.00;;;1.47;;
5133;SDS011;2585;48.696;10.066;2023-12-14T02:21:32;2.00;;;1.80;;
5133;SDS011;2585;48.696;10.066;2023-12-14T02:23:58;2.17;;;1.87;;
5133;SDS011;2585;48.696;10.066;2023-12-14T02:26:25;2.03;;;1.83;;
5133;SDS011;2585;48.696;10.066;2023-12-14T02:28:52;3.47;;;2.00;;
5133;SDS011;2585;48.696;10.066;2023-12-14T02:31:19;6.20;;;2.80;;
5133;SDS011;2585;48.696;10.066;2023-12-14T02:33:46;3.10;;;2.80;;
5133;SDS011;2585;48.696;10.066;2023-12-14T02:36:13;7.57;;;2.80;;
5133;SDS011;2585;48.696;10.066;2023-12-14T02:38:40;3.90;;;3.00;;
5133;SDS011;2585;48.696;10.066;2023-12-14T02:41:07;3.40;;;3.00;;
5133;SDS011;2585;48.696;10.066;2023-12-14T02:43:34;4.10;;;3.20;;
5133;SDS011;2585;48.696;10.066;2023-12-14T02:46:01;4.53;;;3.30;;
5133;SDS011;2585;48.696;10.066;2023-12-14T02:48:29;7.80;;;3.47;;
5133;SDS011;2585;48.696;10.066;2023-12-14T02:50:56;4.80;;;3.00;;
5133;SDS011;2585;48.696;10.066;2023-12-14T02:53:23;3.03;;;2.63;;
5133;SDS011;2585;48.696;10.066;2023-12-14T02:55:50;4.47;;;3.20;;
5133;SDS011;2585;48.696;10.066;2023-12-14T02:58:18;5.83;;;4.10;;
5133;SDS011;2585;48.696;10.066;2023-12-14T03:00:45;5.43;;;2.87;;
5133;SDS011;2585;48.696;10.066;2023-12-14T03:03:12;5.37;;;2.90;;
5133;SDS011;2585;48.696;10.066;2023-12-14T03:05:39;4.07;;;2.60;;
5133;SDS011;2585;48.696;10.066;2023-12-14T03:08:05;2.43;;;2.23;;
5133;SDS011;2585;48.696;10.066;2023-12-14T03:10:32;2.90;;;2.40;;
5133;SDS011;2585;48.696;10.066;2023-12-14T03:12:59;2.43;;;2.23;;
5133;SDS011;2585;48.696;10.066;2023-12-14T03:15:26;4.70;;;2.60;;
5133;SDS011;2585;48.696;10.066;2023-12-14T03:17:53;3.53;;;2.53;;
5133;SDS011;2585;48.696;10.066;2023-12-14T03:20:20;2.30;;;2.10;;
5133;SDS011;2585;48.696;10.066;2023-12-14T03:22:47;3.20;;;2.90;;
5133;SDS011;2585;48.696;10.066;2023-12-14T03:25:14;4.20;;;2.33;;
5133;SDS011;2585;48.696;10.066;2023-12-14T03:27:41;2.80;;;2.30;;
5133;SDS011;2585;48.696;10.066;2023-12-14T03:30:08;2.87;;;2.60;;
5133;SDS011;2585;48.696;10.066;2023-12-14T03:32:36;2.53;;;2.13;;
5133;SDS011;2585;48.696;10.066;2023-12-14T03:35:04;3.73;;;2.20;;
5133;SDS011;2585;48.696;10.066;2023-12-14T03:37:32;2.80;;;2.23;;
5133;SDS011;2585;48.696;10.066;2023-12-14T03:39:58;2.47;;;2.20;;
5133;SDS011;2585;48.696;10.066;2023-12-14T03:42:25;2.20;;;2.00;;
5133;SDS011;2585;48.696;10.066;2023-12-14T03:44:52;3.07;;;2.10;;
5133;SDS011;2585;48.696;10.066;2023-12-14T03:47:19;2.60;;;2.40;;
5133;SDS011;2585;48.696;10.066;2023-12-14T03:49:46;2.83;;;1.77;;
5133;SDS011;2585;48.696;10.066;2023-12-14T03:52:12;2.13;;;1.83;;
5133;SDS011;2585;48.696;10.066;2023-12-14T03:54:39;2.90;;;2.30;;
5133;SDS011;2585;48.696;10.066;2023-12-14T03:57:06;2.53;;;2.33;;
5133;SDS011;2585;48.696;10.066;2023-12-14T03:59:33;3.33;;;2.43;;
5133;SDS011;2585;48.696;10.066;2023-12-14T04:02:04;2.50;;;2.30;;
5133;SDS011;2585;48.696;10.066;2023-12-14T04:04:31;2.50;;;2.30;;
5133;SDS011;2585;48.696;10.066;2023-12-14T04:06:58;4.63;;;2.63;;
5133;SDS011;2585;48.696;10.066;2023-12-14T04:09:25;4.03;;;3.20;;
5133;SDS011;2585;48.696;10.066;2023-12-14T04:11:51;4.03;;;2.77;;
5133;SDS011;2585;48.696;10.066;2023-12-14T04:14:18;4.73;;;2.90;;
5133;SDS011;2585;48.696;10.066;2023-12-14T04:16:45;3.00;;;2.80;;
5133;SDS011;2585;48.696;10.066;2023-12-14T04:19:12;2.90;;;2.70;;
5133;SDS011;2585;48.696;10.066;2023-12-14T04:21:39;4.33;;;3.33;;
5133;SDS011;2585;48.696;10.066;2023-12-14T04:24:06;3.83;;;2.77;;
5133;SDS011;2585;48.696;10.066;2023-12-14T04:26:33;3.87;;;2.70;;
5133;SDS011;2585;48.696;10.066;2023-12-14T04:29:00;3.90;;;3.20;;
5133;SDS011;2585;48.696;10.066;2023-12-14T04:31:27;3.40;;;2.80;;
5133;SDS011;2585;48.696;10.066;2023-12-14T04:33:53;3.17;;;2.60;;
5133;SDS011;2585;48.696;10.066;2023-12-14T04:36:20;4.90;;;4.10;;
5133;SDS011;2585;48.696;10.066;2023-12-14T04:38:47;5.90;;;4.30;;
5133;SDS011;2585;48.696;10.066;2023-12-14T04:41:14;4.67;;;4.17;;
5133;SDS011;2585;48.696;10.066;2023-12-14T04:43:41;5.57;;;4.67;;
5133;SDS011;2585;48.696;10.066;2023-12-14T04:46:08;3.77;;;3.33;;
5133;SDS011;2585;48.696;10.066;2023-12-14T04:48:35;3.10;;;2.80;;
5133;SDS011;2585;48.696;10.066;2023-12-14T04:51:02;6.90;;;2.80;;
5133;SDS011;2585;48.696;10.066;2023-12-14T04:53:29;3.10;;;2.77;;
5133;SDS011;2585;48.696;10.066;2023-12-14T04:55:56;3.30;;;2.77;;
5133;SDS011;2585;48.696;10.066;2023-12-14T04:58:23;2.87;;;2.60;;
5133;SDS011;2585;48.696;10.066;2023-12-14T05:00:50;4.10;;;2.57;;
5133;SDS011;2585;48.696;10.066;2023-12-14T05:03:17;3.37;;;2.87;;
5133;SDS011;2585;48.696;10.066;2023-12-14T05:05:44;5.27;;;3.07;;
5133;SDS011;2585;48.696;10.066;2023-12-14T05:08:11;4.73;;;3.80;;
5133;SDS011;2585;48.696;10.066;2023-12-14T05:10:38;3.00;;;2.73;;
5133;SDS011;2585;48.696;10.066;2023-12-14T05:13:05;4.90;;;2.77;;
5133;SDS011;2585;48.696;10.066;2023-12-14T05:15:32;4.00;;;3.60;;
5133;SDS011;2585;48.696;10.066;2023-12-14T05:17:59;4.20;;;3.80;;
5133;SDS011;2585;48.696;10.066;2023-12-14T05:20:26;4.90;;;3.70;;
5133;SDS011;2585;48.696;10.066;2023-12-14T05:22:53;4.60;;;3.77;;
5133;SDS011;2585;48.696;10.066;2023-12-14T05:25:21;4.57;;;3.40;;
5133;SDS011;2585;48.696;10.066;2023-12-14T05:27:48;4.10;;;3.47;;
5133;SDS011;2585;48.696;10.066;2023-12-14T05:30:15;4.80;;;3.50;;
5133;SDS011;2585;48.696;10.066;2023-12-14T05:32:42;3.30;;;3.00;;
5133;SDS011;2585;48.696;10.066;2023-12-14T05:35:09;3.67;;;3.20;;
5133;SDS011;2585;48.696;10.066;2023-12-14T05:37:38;3.20;;;2.90;;
5133;SDS011;2585;48.696;10.066;2023-12-14T05:40:05;23.80;;;13.13;;
5133;SDS011;2585;48.696;10.066;2023-12-14T05:42:33;29.43;;;15.63;;
5133;SDS011;2585;48.696;10.066;2023-12-14T05:45:00;43.40;;;27.40;;
5133;SDS011;2585;48.696;10.066;2023-12-14T05:47:27;15.80;;;9.73;;
5133;SDS011;2585;48.696;10.066;2023-12-14T05:49:54;12.23;;;6.93;;
5133;SDS011;2585;48.696;10.066;2023-12-14T05:52:21;5.40;;;4.17;;
5133;SDS011;2585;48.696;10.066;2023-12-14T05:54:48;6.00;;;3.93;;
5133;SDS011;2585;48.696;10.066;2023-12-14T05:57:14;4.13;;;2.60;;
5133;SDS011;2585;48.696;10.066;2023-12-14T05:59:41;6.50;;;5.17;;
5133;SDS011;2585;48.696;10.066;2023-12-14T06:02:08;9.13;;;6.63;;
5133;SDS011;2585;48.696;10.066;2023-12-14T06:04:35;5.57;;;4.53;;
5133;SDS011;2585;48.696;10.066;2023-12-14T06:07:02;7.60;;;5.37;;
5133;SDS011;2585;48.696;10.066;2023-12-14T06:09:29;7.90;;;5.70;;
5133;SDS011;2585;48.696;10.066;2023-12-14T06:12:00;13.93;;;7.30;;
5133;SDS011;2585;48.696;10.066;2023-12-14T06:14:28;12.30;;;6.80;;
5133;SDS011;2585;48.696;10.066;2023-12-14T06:16:55;13.07;;;8.50;;
5133;SDS011;2585;48.696;10.066;2023-12-14T06:19:23;12.80;;;7.87;;
5133;SDS011;2585;48.696;10.066;2023-12-14T06:21:50;11.87;;;7.03;;
5133;SDS011;2585;48.696;10.066;2023-12-14T06:24:16;10.10;;;6.90;;
5133;SDS011;2585;48.696;10.066;2023-12-14T06:26:44;11.30;;;7.40;;
5133;SDS011;2585;48.696;10.066;2023-12-14T06:29:12;11.40;;;7.20;;
5133;SDS011;2585;48.696;10.066;2023-12-14T06:31:39;9.00;;;6.37;;
5133;SDS011;2585;48.696;10.066;2023-12-14T06:34:06;8.40;;;6.13;;
5133;SDS011;2585;48.696;10.066;2023-12-14T06:36:33;9.00;;;6.53;;
5133;SDS011;2585;48.696;10.066;2023-12-14T06:39:01;15.00;;;7.77;;
5133;SDS011;2585;48.696;10.066;2023-12-14T06:41:29;10.27;;;8.00;;
5133;SDS011;2585;48.696;10.066;2023-12-14T06:43:56;8.20;;;6.83;;
5133;SDS011;2585;48.696;10.066;2023-12-14T06:46:23;13.37;;;7.60;;
5133;SDS011;2585;48.696;10.066;2023-12-14T06:48:50;9.67;;;7.40;;
5133;SDS011;2585;48.696;10.066;2023-12-14T06:51:17;8.37;;;7.10;;
5133;SDS011;2585;48.696;10.066;2023-12-14T06:53:44;8.77;;;7.10;;
5133;SDS011;2585;48.696;10.066;2023-12-14T06:56:12;11.77;;;8.10;;
5133;SDS011;2585;48.696;10.066;2023-12-14T06:58:39;12.97;;;9.03;;
5133;SDS011;2585;48.696;10.066;2023-12-14T07:01:12;11.90;;;8.40;;
5133;SDS011;2585;48.696;10.066;2023-12-14T07:03:41;10.00;;;6.87;;
5133;SDS011;2585;48.696;10.066;2023-12-14T07:06:13;10.47;;;7.00;;
5133;SDS011;2585;48.696;10.066;2023-12-14T07:08:41;9.80;;;7.43;;
5133;SDS011;2585;48.696;10.066;2023-12-14T07:11:09;10.53;;;6.50;;
5133;SDS011;2585;48.696;10.066;2023-12-14T07:13:36;8.23;;;6.37;;
5133;SDS011;2585;48.696;10.066;2023-12-14T07:16:07;5.20;;;4.10;;
5133;SDS011;2585;48.696;10.066;2023-12-14T07:18:36;7.97;;;5.07;;
5133;SDS011;2585;48.696;10.066;2023-12-14T07:21:04;8.97;;;5.83;;
5133;SDS011;2585;48.696;10.066;2023-12-14T07:23:32;7.60;;;5.67;;
5133;SDS011;2585;48.696;10.066;2023-12-14T07:25:59;8.53;;;6.97;;
5133;SDS011;2585;48.696;10.066;2023-12-14T07:28:29;8.87;;;7.30;;
5133;SDS011;2585;48.696;10.066;2023-12-14T07:30:56;12.27;;;6.93;;
5133;SDS011;2585;48.696;10.066;2023-12-14T07:33:23;16.07;;;8.60;;
5133;SDS011;2585;48.696;10.066;2023-12-14T07:35:51;18.97;;;11.53;;
5133;SDS011;2585;48.696;10.066;2023-12-14T07:38:17;30.13;;;16.20;;
5133;SDS011;2585;48.696;10.066;2023-12-14T07:40:44;25.73;;;15.70;;
5133;SDS011;2585;48.696;10.066;2023-12-14T07:43:13;16.73;;;10.80;;
5133;SDS011;2585;48.696;10.066;2023-12-14T07:45:40;18.60;;;11.50;;
5133;SDS011;2585;48.696;10.066;2023-12-14T07:48:06;14.77;;;10.60;;
5133;SDS011;2585;48.696;10.066;2023-12-14T07:50:33;15.17;;;10.53;;
5133;SDS011;2585;48.696;10.066;2023-12-14T07:53:00;14.10;;;9.17;;
5133;SDS011;2585;48.696;10.066;2023-12-14T07:55:27;10.17;;;7.87;;
5133;SDS011;2585;48.696;10.066;2023-12-14T07:57:55;11.70;;;7.53;;
5133;SDS011;2585;48.696;10.066;2023-12-14T08:00:21;10.70;;;7.03;;
5133;SDS011;2585;48.696;10.066;2023-12-14T08:02:48;10.13;;;6.03;;
5133;SDS011;2585;48.696;10.066;2023-12-14T08:05:15;11.13;;;7.47;;
5133;SDS011;2585;48.696;10.066;2023-12-14T08:07:42;9.87;;;6.40;;
5133;SDS011;2585;48.696;10.066;2023-12-14T08:10:09;11.50;;;7.40;;
5133;SDS011;2585;48.696;10.066;2023-12-14T08:12:36;8.30;;;5.97;;
5133;SDS011;2585;48.696;10.066;2023-12-14T08:15:03;12.70;;;8.93;;
5133;SDS011;2585;48.696;10.066;2023-12-14T08:17:31;15.23;;;9.60;;
5133;SDS011;2585;48.696;10.066;2023-12-14T08:19:57;12.60;;;7.93;;
5133;SDS011;2585;48.696;10.066;2023-12-14T08:22:24;11.93;;;7.93;;
5133;SDS011;2585;48.696;10.066;2023-12-14T08:24:51;12.13;;;8.10;;
5133;SDS011;2585;48.696;10.066;2023-12-14T08:27:18;10.63;;;6.93;;
5133;SDS011;2585;48.696;10.066;2023-12-14T08:29:45;9.63;;;7.00;;
5133;SDS011;2585;48.696;10.066;2023-12-14T08:32:12;16.50;;;7.87;;
5133;SDS011;2585;48.696;10.066;2023-12-14T08:34:39;15.57;;;8.13;;
5133;SDS011;2585;48.696;10.066;2023-12-14T08:37:07;12.23;;;7.70;;
5133;SDS011;2585;48.696;10.066;2023-12-14T08:39:34;11.73;;;9.17;;
5133;SDS011;2585;48.696;10.066;2023-12-14T08:42:01;12.93;;;8.60;;
5133;SDS011;2585;48.696;10.066;2023-12-14T08:44:28;14.97;;;10.13;;
5133;SDS011;2585;48.696;10.066;2023-12-14T08:46:55;15.80;;;10.70;;
5133;SDS011;2585;48.696;10.066;2023-12-14T08:49:22;16.50;;;11.73;;
5133;SDS011;2585;48.696;10.066;2023-12-14T08:51:49;16.03;;;10.30;;
5133;SDS011;2585;48.696;10.066;2023-12-14T08:54:17;16.97;;;10.90;;
5133;SDS011;2585;48.696;10.066;2023-12-14T08:56:44;19.23;;;11.37;;
5133;SDS011;2585;48.696;10.066;2023-12-14T08:59:11;20.30;;;11.57;;
5133;SDS011;2585;48.696;10.066;2023-12-14T09:01:38;20.73;;;10.97;;
5133;SDS011;2585;48.696;10.066;2023-12-14T09:04:06;17.40;;;10.47;;
5133;SDS011;2585;48.696;10.066;2023-12-14T09:06:33;21.00;;;11.33;;
5133;SDS011;2585;48.696;10.066;2023-12-14T09:09:00;16.07;;;9.97;;
5133;SDS011;2585;48.696;10.066;2023-12-14T09:11:27;16.33;;;8.40;;
5133;SDS011;2585;48.696;10.066;2023-12-14T09:13:53;7.30;;;5.53;;
5133;SDS011;2585;48.696;10.066;2023-12-14T09:16:20;7.93;;;5.97;;
5133;SDS011;2585;48.696;10.066;2023-12-14T09:18:47;10.80;;;5.83;;
5133;SDS011;2585;48.696;10.066;2023-12-14T09:21:14;6.10;;;5.40;;
5133;SDS011;2585;48.696;10.066;2023-12-14T09:23:41;19.77;;;5.57;;
5133;SDS011;2585;48.696;10.066;2023-12-14T09:26:08;6.63;;;5.40;;
5133;SDS011;2585;48.696;10.066;2023-12-14T09:28:36;8.60;;;4.83;;
5133;SDS011;2585;48.696;10.066;2023-12-14T09:31:04;8.63;;;5.27;;
5133;SDS011;2585;48.696;10.066;2023-12-14T09:33:34;8.50;;;5.80;;
5133;SDS011;2585;48.696;10.066;2023-12-14T09:36:01;9.23;;;5.40;;
5133;SDS011;2585;48.696;10.066;2023-12-14T09:38:29;9.10;;;5.40;;
5133;SDS011;2585;48.696;10.066;2023-12-14T09:40:56;8.20;;;4.80;;
5133;SDS011;2585;48.696;10.066;2023-12-14T09:43:23;6.63;;;4.60;;
5133;SDS011;2585;48.696;10.066;2023-12-14T09:45:50;10.90;;;4.87;;
5133;SDS011;2585;48.696;10.066;2023-12-14T09:48:17;5.67;;;3.83;;
5133;SDS011;2585;48.696;10.066;2023-12-14T09:50:45;5.60;;;3.90;;
5133;SDS011;2585;48.696;10.066;2023-12-14T09:53:12;6.37;;;4.50;;
5133;SDS011;2585;48.696;10.066;2023-12-14T09:55:39;7.20;;;3.90;;
5133;SDS011;2585;48.696;10.066;2023-12-14T09:58:06;6.23;;;4.00;;
5133;SDS011;2585;48.696;10.066;2023-12-14T10:00:37;7.77;;;3.97;;
5133;SDS011;2585;48.696;10.066;2023-12-14T10:05:53;5.90;;;3.70;;
5133;SDS011;2585;48.696;10.066;2023-12-14T10:08:24;5.10;;;4.30;;
5133;SDS011;2585;48.696;10.066;2023-12-14T10:10:53;5.90;;;4.70;;
5133;SDS011;2585;48.696;10.066;2023-12-14T10:13:23;7.47;;;5.40;;
5133;SDS011;2585;48.696;10.066;2023-12-14T10:16:03;7.50;;;4.40;;
5133;SDS011;2585;48.696;10.066;2023-12-14T10:18:31;7.80;;;4.93;;
5133;SDS011;2585;48.696;10.066;2023-12-14T10:21:03;6.63;;;4.43;;
5133;SDS011;2585;48.696;10.066;2023-12-14T10:23:33;6.43;;;4.43;;
5133;SDS011;2585;48.696;10.066;2023-12-14T10:26:01;6.13;;;4.60;;
5133;SDS011;2585;48.696;10.066;2023-12-14T10:28:32;10.30;;;6.40;;
5133;SDS011;2585;48.696;10.066;2023-12-14T10:30:58;9.40;;;5.97;;
5133;SDS011;2585;48.696;10.066;2023-12-14T10:33:26;11.00;;;5.43;;
5133;SDS011;2585;48.696;10.066;2023-12-14T10:35:52;9.60;;;6.43;;
5133;SDS011;2585;48.696;10.066;2023-12-14T10:38:19;11.80;;;6.57;;
5133;SDS011;2585;48.696;10.066;2023-12-14T10:40:47;13.37;;;6.43;;
5133;SDS011;2585;48.696;10.066;2023-12-14T10:43:14;9.00;;;5.07;;
5133;SDS011;2585;48.696;10.066;2023-12-14T10:46:02;9.43;;;5.57;;
5133;SDS011;2585;48.696;10.066;2023-12-14T10:48:34;12.47;;;5.70;;
5133;SDS011;2585;48.696;10.066;2023-12-14T10:51:02;7.90;;;5.60;;
5133;SDS011;2585;48.696;10.066;2023-12-14T10:53:32;7.43;;;5.37;;
5133;SDS011;2585;48.696;10.066;2023-12-14T10:56:00;8.10;;;5.30;;
5133;SDS011;2585;48.696;10.066;2023-12-14T11:01:20;8.63;;;5.43;;
5133;SDS011;2585;48.696;10.066;2023-12-14T11:03:53;10.27;;;5.40;;
5133;SDS011;2585;48.696;10.066;2023-12-14T11:06:30;5.87;;;5.20;;
5133;SDS011;2585;48.696;10.066;2023-12-14T11:09:03;8.97;;;4.57;;
5133;SDS011;2585;48.696;10.066;2023-12-14T11:11:42;6.53;;;4.00;;
5133;SDS011;2585;48.696;10.066;2023-12-14T11:14:19;7.20;;;4.83;;
5133;SDS011;2585;48.696;10.066;2023-12-14T11:16:52;9.13;;;4.43;;
5133;SDS011;2585;48.696;10.066;2023-12-14T11:21:48;4.53;;;3.30;;
5133;SDS011;2585;48.696;10.066;2023-12-14T11:24:35;4.50;;;3.20;;
5133;SDS011;2585;48.696;10.066;2023-12-14T11:27:08;5.93;;;3.40;;
5133;SDS011;2585;48.696;10.066;2023-12-14T11:29:36;4.00;;;3.10;;
5133;SDS011;2585;48.696;10.066;2023-12-14T11:32:05;4.90;;;2.77;;
5133;SDS011;2585;48.696;10.066;2023-12-14T11:34:33;6.00;;;3.20;;
5133;SDS011;2585;48.696;10.066;2023-12-14T11:37:00;2.83;;;2.30;;
5133;SDS011;2585;48.696;10.066;2023-12-14T11:39:30;4.00;;;2.80;;
5133;SDS011;2585;48.696;10.066;2023-12-14T11:42:01;4.40;;;2.60;;
5133;SDS011;2585;48.696;10.066;2023-12-14T11:44:34;4.50;;;2.67;;
5133;SDS011;2585;48.696;10.066;2023-12-14T11:47:04;7.93;;;2.93;;
5133;SDS011;2585;48.696;10.066;2023-12-14T11:49:31;5.77;;;2.97;;
5133;SDS011;2585;48.696;10.066;2023-12-14T11:52:01;4.23;;;3.07;;
5133;SDS011;2585;48.696;10.066;2023-12-14T11:54:30;4.93;;;3.30;;
5133;SDS011;2585;48.696;10.066;2023-12-14T11:57:00;2.57;;;2.37;;
5133;SDS011;2585;48.696;10.066;2023-12-14T11:59:29;4.77;;;2.83;;
5133;SDS011;2585;48.696;10.066;2023-12-14T12:01:58;5.23;;;2.90;;
5133;SDS011;2585;48.696;10.066;2023-12-14T12:04:26;3.60;;;2.40;;
5133;SDS011;2585;48.696;10.066;2023-12-14T12:07:03;2.77;;;2.30;;
5133;SDS011;2585;48.696;10.066;2023-12-14T12:09:35;2.90;;;2.50;;
5133;SDS011;2585;48.696;10.066;2023-12-14T12:12:09;4.23;;;2.10;;
5133;SDS011;2585;48.696;10.066;2023-12-14T12:14:41;2.73;;;1.80;;
5133;SDS011;2585;48.696;10.066;2023-12-14T12:17:09;2.30;;;2.10;;
5133;SDS011;2585;48.696;10.066;2023-12-14T12:19:37;2.17;;;1.70;;
5133;SDS011;2585;48.696;10.066;2023-12-14T12:22:04;1.60;;;1.50;;
5133;SDS011;2585;48.696;10.066;2023-12-14T12:24:31;2.03;;;1.50;;
5133;SDS011;2585;48.696;10.066;2023-12-14T12:27:00;2.10;;;1.60;;
5133;SDS011;2585;48.696;10.066;2023-12-14T12:29:27;2.80;;;1.67;;
5133;SDS011;2585;48.696;10.066;2023-12-14T12:31:54;2.40;;;2.10;;
5133;SDS011;2585;48.696;10.066;2023-12-14T12:34:21;3.60;;;3.00;;
5133;SDS011;2585;48.696;10.066;2023-12-14T12:36:48;7.00;;;3.10;;
5133;SDS011;2585;48.696;10.066;2023-12-14T12:39:15;4.13;;;3.17;;
5133;SDS011;2585;48.696;10.066;2023-12-14T12:41:42;5.97;;;3.30;;
5133;SDS011;2585;48.696;10.066;2023-12-14T12:44:09;5.50;;;3.53;;
5133;SDS011;2585;48.696;10.066;2023-12-14T12:46:36;5.47;;;3.70;;
5133;SDS011;2585;48.696;10.066;2023-12-14T12:49:04;4.10;;;3.53;;
5133;SDS011;2585;48.696;10.066;2023-12-14T12:51:31;5.60;;;3.43;;
5133;SDS011;2585;48.696;10.066;2023-12-14T12:53:59;3.90;;;2.87;;
5133;SDS011;2585;48.696;10.066;2023-12-14T12:56:37;4.90;;;3.10;;
5133;SDS011;2585;48.696;10.066;2023-12-14T12:59:04;3.97;;;2.90;;
5133;SDS011;2585;48.696;10.066;2023-12-14T13:01:35;6.00;;;3.20;;
5133;SDS011;2585;48.696;10.066;2023-12-14T13:04:02;4.03;;;2.90;;
5133;SDS011;2585;48.696;10.066;2023-12-14T13:06:30;5.57;;;3.00;;
5133;SDS011;2585;48.696;10.066;2023-12-14T13:08:57;8.53;;;3.40;;
5133;SDS011;2585;48.696;10.066;2023-12-14T13:11:24;15.83;;;3.37;;
5133;SDS011;2585;48.696;10.066;2023-12-14T13:13:51;6.30;;;3.60;;
5133;SDS011;2585;48.696;10.066;2023-12-14T13:16:18;5.90;;;3.47;;
5133;SDS011;2585;48.696;10.066;2023-12-14T13:18:45;9.80;;;4.40;;
5133;SDS011;2585;48.696;10.066;2023-12-14T13:21:12;5.17;;;3.57;;
5133;SDS011;2585;48.696;10.066;2023-12-14T13:23:39;6.27;;;4.07;;
5133;SDS011;2585;48.696;10.066;2023-12-14T13:26:07;6.57;;;3.90;;
5133;SDS011;2585;48.696;10.066;2023-12-14T13:28:34;11.70;;;5.20;;
5133;SDS011;2585;48.696;10.066;2023-12-14T13:31:02;12.10;;;4.93;;
5133;SDS011;2585;48.696;10.066;2023-12-14T13:33:29;7.40;;;3.80;;
5133;SDS011;2585;48.696;10.066;2023-12-14T13:35:57;7.93;;;4.37;;
5133;SDS011;2585;48.696;10.066;2023-12-14T13:38:24;13.23;;;5.57;;
5133;SDS011;2585;48.696;10.066;2023-12-14T13:40:51;5.13;;;3.90;;
5133;SDS011;2585;48.696;10.066;2023-12-14T13:43:17;9.43;;;3.97;;
5133;SDS011;2585;48.696;10.066;2023-12-14T13:45:44;9.60;;;5.27;;
5133;SDS011;2585;48.696;10.066;2023-12-14T13:48:16;5.67;;;4.40;;
5133;SDS011;2585;48.696;10.066;2023-12-14T13:50:43;6.30;;;4.73;;
5133;SDS011;2585;48.696;10.066;2023-12-14T13:53:10;5.13;;;4.60;;
5133;SDS011;2585;48.696;10.066;2023-12-14T13:55:37;10.50;;;5.03;;
5133;SDS011;2585;48.696;10.066;2023-12-14T13:58:04;8.20;;;5.33;;
5133;SDS011;2585;48.696;10.066;2023-12-14T14:00:31;6.40;;;4.90;;
5133;SDS011;2585;48.696;10.066;2023-12-14T14:03:00;5.73;;;4.73;;
5133;SDS011;2585;48.696;10.066;2023-12-14T14:05:30;10.00;;;7.10;;
5133;SDS011;2585;48.696;10.066;2023-12-14T14:07:57;7.47;;;5.87;;
5133;SDS011;2585;48.696;10.066;2023-12-14T14:10:24;7.50;;;5.43;;
5133;SDS011;2585;48.696;10.066;2023-12-14T14:12:51;12.30;;;5.30;;
5133;SDS011;2585;48.696;10.066;2023-12-14T14:15:18;12.33;;;6.23;;
5133;SDS011;2585;48.696;10.066;2023-12-14T14:17:46;12.33;;;6.30;;
5133;SDS011;2585;48.696;10.066;2023-12-14T14:20:18;7.30;;;6.00;;
5133;SDS011;2585;48.696;10.066;2023-12-14T14:22:46;6.83;;;5.20;;
5133;SDS011;2585;48.696;10.066;2023-12-14T14:25:13;9.30;;;6.97;;
5133;SDS011;2585;48.696;10.066;2023-12-14T14:27:39;17.83;;;10.13;;
5133;SDS011;2585;48.696;10.066;2023-12-14T14:30:07;19.73;;;10.50;;
5133;SDS011;2585;48.696;10.066;2023-12-14T14:32:34;17.57;;;9.63;;
5133;SDS011;2585;48.696;10.066;2023-12-14T14:35:04;9.27;;;6.87;;
5133;SDS011;2585;48.696;10.066;2023-12-14T14:37:33;7.70;;;6.77;;
5133;SDS011;2585;48.696;10.066;2023-12-14T14:40:00;8.53;;;6.00;;
5133;SDS011;2585;48.696;10.066;2023-12-14T14:42:28;7.93;;;5.47;;
5133;SDS011;2585;48.696;10.066;2023-12-14T14:44:55;13.20;;;5.70;;
5133;SDS011;2585;48.696;10.066;2023-12-14T14:47:22;11.63;;;4.87;;
5133;SDS011;2585;48.696;10.066;2023-12-14T14:49:50;13.40;;;8.07;;
5133;SDS011;2585;48.696;10.066;2023-12-14T14:52:17;7.67;;;4.10;;
5133;SDS011;2585;48.696;10.066;2023-12-14T14:54:44;4.70;;;3.40;;
5133;SDS011;2585;48.696;10.066;2023-12-14T14:57:10;3.50;;;2.50;;
5133;SDS011;2585;48.696;10.066;2023-12-14T14:59:37;3.80;;;2.67;;
5133;SDS011;2585;48.696;10.066;2023-12-14T15:02:04;4.17;;;2.60;;
5133;SDS011;2585;48.696;10.066;2023-12-14T15:04:31;2.30;;;2.10;;
5133;SDS011;2585;48.696;10.066;2023-12-14T15:06:58;3.40;;;2.60;;
5133;SDS011;2585;48.696;10.066;2023-12-14T15:09:25;2.47;;;2.27;;